createdAt,value
2023-02-01T00:00:38.682Z,1.93
2023-02-01T00:03:41.983Z,1.97
2023-02-01T00:06:46.368Z,2.00
2023-02-01T00:09:49.413Z,1.97
2023-02-01T00:12:52.664Z,2.23
2023-02-01T00:15:55.610Z,2.40
2023-02-01T00:19:02.962Z,2.30
2023-02-01T00:22:07.451Z,2.20
2023-02-01T00:25:10.961Z,2.63
2023-02-01T00:28:14.849Z,2.70
2023-02-01T00:31:18.110Z,2.70
2023-02-01T00:34:21.766Z,2.70
2023-02-01T00:37:26.196Z,3.00
2023-02-01T00:40:29.297Z,2.70
2023-02-01T00:43:33.232Z,2.90
2023-02-01T00:46:37.861Z,2.90
2023-02-01T00:49:41.201Z,2.60
2023-02-01T00:52:45.581Z,2.60
2023-02-01T00:55:49.294Z,2.40
2023-02-01T00:58:52.615Z,2.87
2023-02-01T01:01:55.787Z,2.30
2023-02-01T01:04:59.259Z,2.40
2023-02-01T01:08:03.319Z,2.70
2023-02-01T01:11:08.040Z,1.83
2023-02-01T01:14:11.545Z,1.90
2023-02-01T01:17:14.184Z,1.67
2023-02-01T01:20:17.671Z,2.00
2023-02-01T01:23:21.679Z,1.90
2023-02-01T01:26:26.803Z,2.30
2023-02-01T01:29:29.611Z,1.90
2023-02-01T01:32:32.261Z,1.87
2023-02-01T01:35:35.409Z,2.30
2023-02-01T01:38:39.968Z,2.00
2023-02-01T01:41:42.625Z,1.90
2023-02-01T01:45:04.723Z,2.10
2023-02-01T01:48:11.693Z,1.90
2023-02-01T01:51:19.241Z,2.70
2023-02-01T01:54:30.897Z,2.67
2023-02-01T01:57:37.608Z,2.70
2023-02-01T02:00:41.815Z,3.17
2023-02-01T02:03:46.515Z,3.30
2023-02-01T02:06:56.570Z,3.20
2023-02-01T02:10:01.597Z,3.80
2023-02-01T02:13:04.512Z,3.50
2023-02-01T02:16:38.674Z,3.07
2023-02-01T02:20:12.456Z,3.43
2023-02-01T02:23:46.879Z,3.33
2023-02-01T02:27:23.858Z,3.23
2023-02-01T02:31:01.849Z,2.83
2023-02-01T02:34:16.946Z,3.30
2023-02-01T02:37:28.765Z,3.37
2023-02-01T02:40:38.888Z,2.90
2023-02-01T02:44:05.653Z,3.40
2023-02-01T02:47:28.638Z,2.27
2023-02-01T02:50:56.577Z,2.23
2023-02-01T02:54:27.179Z,2.20
2023-02-01T02:57:51.579Z,2.53
2023-02-01T03:01:12.859Z,2.50
2023-02-01T03:04:19.014Z,2.27
2023-02-01T03:07:55.416Z,2.43
2023-02-01T03:11:02.057Z,2.90
2023-02-01T03:14:07.438Z,2.57
2023-02-01T03:17:16.591Z,2.60
2023-02-01T03:20:21.911Z,2.87
2023-02-01T03:23:32.401Z,2.67
2023-02-01T03:26:39.699Z,2.47
2023-02-01T03:29:47.760Z,2.40
2023-02-01T03:33:00.095Z,2.60
2023-02-01T03:36:11.843Z,2.40
2023-02-01T03:39:19.624Z,2.40
2023-02-01T03:42:29.412Z,1.80
2023-02-01T03:45:40.077Z,1.90
2023-02-01T03:48:43.434Z,2.10
2023-02-01T03:51:46.370Z,2.00
2023-02-01T03:54:51.659Z,1.67
2023-02-01T03:57:59.075Z,1.87
2023-02-01T04:01:02.158Z,1.37
2023-02-01T04:04:05.329Z,0.87
2023-02-01T04:07:08.110Z,1.43
2023-02-01T04:10:13.925Z,1.07
2023-02-01T04:13:16.714Z,1.30
2023-02-01T04:16:19.417Z,1.20
2023-02-01T04:19:22.130Z,1.50
2023-02-01T04:22:25.005Z,1.30
2023-02-01T04:25:29.032Z,1.30
2023-02-01T04:28:32.356Z,1.20
2023-02-01T04:31:37.522Z,1.47
2023-02-01T04:34:40.286Z,1.40
2023-02-01T04:37:42.929Z,1.20
2023-02-01T04:40:49.323Z,1.50
2023-02-01T04:43:53.450Z,1.77
2023-02-01T04:46:56.175Z,1.87
2023-02-01T04:49:58.804Z,1.40
2023-02-01T04:53:01.872Z,1.50
2023-02-01T04:56:07.340Z,1.30
2023-02-01T04:59:13.672Z,1.43
2023-02-01T05:02:16.767Z,1.50
2023-02-01T05:05:19.457Z,1.50
2023-02-01T05:08:23.708Z,1.47
2023-02-01T05:11:45.079Z,1.43
2023-02-01T05:14:48.791Z,1.40
2023-02-01T05:17:51.438Z,1.30
2023-02-01T05:20:54.151Z,1.30
2023-02-01T05:24:13.795Z,1.60
2023-02-01T05:27:17.841Z,1.70
2023-02-01T05:30:20.823Z,1.43
2023-02-01T05:33:24.346Z,1.80
2023-02-01T05:36:27.623Z,2.17
2023-02-01T05:39:30.323Z,2.03
2023-02-01T05:42:34.375Z,1.90
2023-02-01T05:45:37.067Z,2.17
2023-02-01T05:48:39.776Z,2.70
2023-02-01T05:51:42.427Z,1.93
2023-02-01T05:54:45.095Z,2.80
2023-02-01T05:57:49.136Z,2.40
2023-02-01T06:00:52.011Z,2.90
2023-02-01T06:03:54.726Z,3.27
2023-02-01T06:06:57.427Z,2.87
2023-02-01T06:10:00.100Z,3.50
2023-02-01T06:13:04.902Z,3.20
2023-02-01T06:16:08.916Z,3.93
2023-02-01T06:19:11.616Z,2.90
2023-02-01T06:22:14.383Z,3.30
2023-02-01T06:25:17.764Z,3.10
2023-02-01T06:28:22.606Z,3.40
2023-02-01T06:31:26.245Z,3.73
2023-02-01T06:34:29.099Z,3.43
2023-02-01T06:37:31.776Z,3.33
2023-02-01T06:40:34.568Z,3.67
2023-02-01T06:43:38.957Z,3.20
2023-02-01T06:46:42.238Z,3.37
2023-02-01T06:49:44.945Z,3.10
2023-02-01T06:52:47.990Z,3.03
2023-02-01T06:55:55.317Z,3.17
2023-02-01T06:58:59.378Z,2.70
2023-02-01T07:02:02.045Z,3.10
2023-02-01T07:05:05.436Z,2.77
2023-02-01T07:08:08.571Z,3.00
2023-02-01T07:11:13.372Z,3.43
2023-02-01T07:14:17.549Z,3.27
2023-02-01T07:17:20.226Z,3.03
2023-02-01T07:20:23.347Z,3.77
2023-02-01T07:23:26.815Z,3.40
2023-02-01T07:26:29.484Z,3.20
2023-02-01T07:29:33.767Z,3.27
2023-02-01T07:32:36.524Z,3.20
2023-02-01T07:35:39.379Z,2.93
2023-02-01T07:38:42.088Z,2.00
2023-02-01T07:41:44.868Z,1.90
2023-02-01T07:44:48.863Z,1.50
2023-02-01T07:47:53.995Z,1.80
2023-02-01T07:51:00.595Z,2.27
2023-02-01T07:54:03.650Z,1.97
2023-02-01T07:57:06.280Z,2.43
2023-02-01T08:00:29.395Z,2.43
2023-02-01T08:03:32.098Z,3.13
2023-02-01T08:06:36.009Z,3.10
2023-02-01T08:09:38.673Z,3.77
2023-02-01T08:12:42.764Z,3.80
2023-02-01T08:15:46.795Z,3.63
2023-02-01T08:18:49.564Z,4.90
2023-02-01T08:21:52.245Z,12.37
2023-02-01T08:25:02.184Z,5.80
2023-02-01T08:28:05.123Z,4.03
2023-02-01T08:31:11.750Z,5.30
2023-02-01T08:34:14.401Z,4.80
2023-02-01T08:37:17.087Z,3.93
2023-02-01T08:40:20.246Z,4.70
2023-02-01T08:43:22.935Z,4.20
2023-02-01T08:46:27.385Z,4.10
2023-02-01T08:49:30.083Z,4.30
2023-02-01T08:52:32.893Z,4.53
2023-02-01T08:55:35.554Z,4.33
2023-02-01T08:58:38.360Z,4.97
2023-02-01T09:01:43.096Z,4.40
2023-02-01T09:04:45.918Z,4.30
2023-02-01T09:07:48.588Z,4.50
2023-02-01T09:10:51.446Z,3.90
2023-02-01T09:13:54.204Z,4.07
2023-02-01T09:16:58.284Z,3.83
2023-02-01T09:20:00.998Z,3.33
2023-02-01T09:23:03.651Z,4.60
2023-02-01T09:26:07.875Z,5.10
2023-02-01T09:29:12.066Z,4.20
2023-02-01T09:32:16.203Z,3.23
2023-02-01T09:35:19.015Z,3.00
2023-02-01T09:38:21.753Z,3.20
2023-02-01T09:41:45.153Z,3.30
2023-02-01T09:45:01.590Z,5.33
2023-02-01T09:48:15.275Z,4.50
2023-02-01T09:51:24.424Z,4.17
2023-02-01T09:54:30.851Z,3.37
2023-02-01T09:57:47.730Z,5.67
2023-02-01T10:00:54.335Z,3.53
2023-02-01T10:04:04.620Z,4.20
2023-02-01T10:07:15.611Z,3.00
2023-02-01T10:10:27.624Z,3.70
2023-02-01T10:13:47.663Z,3.30
2023-02-01T10:16:56.402Z,3.00
2023-02-01T10:20:10.030Z,2.60
2023-02-01T10:23:34.435Z,3.63
2023-02-01T10:26:40.102Z,2.80
2023-02-01T10:29:46.871Z,2.60
2023-02-01T10:32:54.037Z,3.50
2023-02-01T10:36:05.873Z,3.93
2023-02-01T10:39:13.082Z,3.10
2023-02-01T10:42:16.044Z,2.50
2023-02-01T10:45:21.370Z,2.70
2023-02-01T10:48:25.180Z,3.23
2023-02-01T10:51:32.758Z,2.30
2023-02-01T10:54:39.264Z,2.33
2023-02-01T10:57:42.060Z,2.23
2023-02-01T11:00:48.492Z,2.30
2023-02-01T11:03:57.403Z,2.10
2023-02-01T11:07:14.472Z,2.73
2023-02-01T11:10:37.017Z,2.30
2023-02-01T11:13:41.776Z,2.73
2023-02-01T11:16:50.739Z,2.30
2023-02-01T11:19:59.491Z,2.30
2023-02-01T11:23:04.460Z,2.57
2023-02-01T11:26:13.646Z,2.37
2023-02-01T11:29:21.354Z,2.63
2023-02-01T11:32:26.347Z,2.03
2023-02-01T11:35:32.523Z,2.97
2023-02-01T11:38:36.885Z,2.10
2023-02-01T11:41:44.662Z,1.60
2023-02-01T11:44:48.611Z,2.17
2023-02-01T11:47:54.895Z,2.10
2023-02-01T11:51:16.018Z,2.67
2023-02-01T11:54:32.260Z,2.00
2023-02-01T11:57:49.075Z,2.40
2023-02-01T12:01:07.278Z,2.30
2023-02-01T12:04:49.475Z,2.67
2023-02-01T12:08:04.851Z,2.53
2023-02-01T12:11:25.009Z,1.77
2023-02-01T12:14:41.357Z,1.97
2023-02-01T12:18:00.830Z,2.50
2023-02-01T12:21:08.662Z,2.20
2023-02-01T12:24:47.002Z,2.10
2023-02-01T12:28:17.960Z,2.23
2023-02-01T12:31:32.706Z,2.13
2023-02-01T12:34:52.765Z,3.00
2023-02-01T12:38:08.119Z,2.40
2023-02-01T12:41:23.892Z,2.10
2023-02-01T12:44:34.661Z,2.23
2023-02-01T12:47:42.324Z,2.10
2023-02-01T12:50:49.644Z,2.37
2023-02-01T12:53:54.625Z,2.90
2023-02-01T12:57:03.350Z,5.17
2023-02-01T13:00:24.664Z,5.63
2023-02-01T13:03:36.633Z,4.67
2023-02-01T13:06:44.501Z,5.17
2023-02-01T13:09:53.490Z,4.33
2023-02-01T13:13:01.738Z,3.33
2023-02-01T13:16:18.146Z,2.67
2023-02-01T13:19:26.661Z,4.97
2023-02-01T13:22:34.027Z,4.23
2023-02-01T13:25:41.907Z,2.80
2023-02-01T13:28:48.342Z,2.53
2023-02-01T13:32:18.181Z,2.63
2023-02-01T13:35:37.761Z,3.20
2023-02-01T13:39:27.506Z,5.10
2023-02-01T13:42:33.565Z,3.17
2023-02-01T13:45:43.878Z,9.13
2023-02-01T13:48:52.500Z,3.73
2023-02-01T13:51:57.405Z,3.83
2023-02-01T13:55:15.856Z,3.20
2023-02-01T13:58:22.039Z,3.10
2023-02-01T14:01:37.077Z,2.60
2023-02-01T14:04:52.347Z,1.73
2023-02-01T14:08:13.773Z,2.37
2023-02-01T14:11:42.667Z,3.80
2023-02-01T14:14:47.343Z,2.10
2023-02-01T14:17:50.350Z,1.90
2023-02-01T14:21:24.095Z,2.40
2023-02-01T14:24:29.667Z,2.33
2023-02-01T14:27:37.927Z,2.20
2023-02-01T14:30:44.449Z,2.47
2023-02-01T14:33:48.180Z,1.87
2023-02-01T14:37:00.503Z,2.07
2023-02-01T14:40:07.238Z,2.13
2023-02-01T14:43:32.595Z,1.47
2023-02-01T14:47:06.588Z,2.13
2023-02-01T14:50:27.168Z,2.50
2023-02-01T14:53:39.201Z,2.77
2023-02-01T14:56:42.340Z,2.13
2023-02-01T14:59:47.329Z,2.23
2023-02-01T15:02:51.668Z,2.20
2023-02-01T15:05:59.378Z,1.90
2023-02-01T15:09:09.747Z,2.40
2023-02-01T15:12:21.342Z,2.17
2023-02-01T15:15:27.333Z,1.97
2023-02-01T15:18:30.302Z,2.40
2023-02-01T15:21:33.352Z,2.20
2023-02-01T15:24:37.384Z,1.87
2023-02-01T15:27:40.239Z,1.93
2023-02-01T15:30:54.686Z,2.57
2023-02-01T15:34:00.601Z,2.40
2023-02-01T15:37:07.146Z,3.97
2023-02-01T15:40:25.062Z,2.23
2023-02-01T15:43:29.927Z,1.87
2023-02-01T15:46:36.607Z,4.17
2023-02-01T15:49:42.145Z,2.17
2023-02-01T15:52:45.249Z,2.07
2023-02-01T15:55:53.731Z,2.77
2023-02-01T15:59:00.367Z,2.10
2023-02-01T16:02:03.889Z,2.10
2023-02-01T16:05:08.706Z,3.67
2023-02-01T16:08:14.928Z,2.17
2023-02-01T16:11:28.511Z,2.27
2023-02-01T16:14:32.908Z,3.40
2023-02-01T16:17:35.572Z,2.30
2023-02-01T16:20:40.062Z,3.70
2023-02-01T16:23:42.741Z,5.03
2023-02-01T16:26:46.892Z,3.53
2023-02-01T16:29:49.693Z,3.77
2023-02-01T16:32:55.869Z,5.70
2023-02-01T16:36:01.228Z,5.60
2023-02-01T16:39:04.647Z,3.03
2023-02-01T16:42:13.851Z,2.30
2023-02-01T16:45:16.538Z,2.90
2023-02-01T16:48:23.890Z,4.43
2023-02-01T16:51:30.103Z,2.40
2023-02-01T16:54:32.806Z,3.10
2023-02-01T16:57:36.789Z,2.40
2023-02-01T17:00:39.607Z,2.17
2023-02-01T17:03:44.127Z,2.57
2023-02-01T17:06:50.758Z,3.87
2023-02-01T17:09:53.436Z,3.50
2023-02-01T17:12:58.482Z,2.23
2023-02-01T17:16:04.697Z,2.60
2023-02-01T17:19:12.141Z,3.67
2023-02-01T17:22:15.727Z,2.60
2023-02-01T17:25:20.208Z,2.60
2023-02-01T17:28:24.941Z,3.47
2023-02-01T17:31:27.785Z,2.10
2023-02-01T17:34:32.407Z,3.00
2023-02-01T17:37:36.628Z,2.57
2023-02-01T17:40:39.848Z,2.00
2023-02-01T17:43:44.795Z,2.60
2023-02-01T17:46:47.546Z,3.60
2023-02-01T17:49:56.824Z,2.77
2023-02-01T17:52:59.741Z,3.20
2023-02-01T17:56:02.572Z,2.50
2023-02-01T17:59:06.772Z,3.83
2023-02-01T18:02:19.815Z,2.80
2023-02-01T18:05:26.332Z,2.80
2023-02-01T18:08:33.297Z,2.73
2023-02-01T18:11:36.272Z,2.37
2023-02-01T18:14:40.305Z,2.50
2023-02-01T18:17:42.987Z,2.40
2023-02-01T18:20:47.199Z,2.67
2023-02-01T18:23:50.515Z,3.20
2023-02-01T18:26:53.237Z,2.07
2023-02-01T18:29:57.357Z,2.37
2023-02-01T18:33:00.355Z,1.63
2023-02-01T18:36:03.415Z,3.70
2023-02-01T18:39:06.150Z,2.83
2023-02-01T18:42:11.955Z,2.40
2023-02-01T18:45:25.952Z,2.70
2023-02-01T18:48:28.787Z,2.90
2023-02-01T18:51:31.391Z,2.93
2023-02-01T18:54:34.061Z,3.27
2023-02-01T18:57:37.695Z,1.90
2023-02-01T19:00:41.663Z,2.47
2023-02-01T19:03:48.161Z,2.40
2023-02-01T19:06:55.757Z,3.27
2023-02-01T19:09:58.809Z,2.50
2023-02-01T19:13:02.078Z,2.67
2023-02-01T19:16:09.591Z,3.00
2023-02-01T19:19:12.304Z,2.57
2023-02-01T19:22:15.079Z,2.43
2023-02-01T19:25:20.818Z,2.73
2023-02-01T19:28:24.100Z,3.07
2023-02-01T19:31:28.399Z,2.77
2023-02-01T19:34:31.624Z,2.47
2023-02-01T19:37:34.305Z,3.47
2023-02-01T19:40:36.956Z,1.70
2023-02-01T19:43:39.999Z,2.43
2023-02-01T19:46:44.031Z,2.90
2023-02-01T19:49:46.820Z,2.17
2023-02-01T19:52:49.627Z,3.00
2023-02-01T19:55:52.291Z,2.50
2023-02-01T19:58:55.344Z,2.30
2023-02-01T20:01:58.460Z,2.50
2023-02-01T20:05:01.359Z,2.50
2023-02-01T20:08:04.035Z,3.07
2023-02-01T20:11:07.674Z,2.83
2023-02-01T20:14:10.618Z,2.43
2023-02-01T20:17:17.663Z,2.40
2023-02-01T20:20:20.772Z,2.43
2023-02-01T20:23:23.496Z,2.43
2023-02-01T20:26:27.140Z,2.37
2023-02-01T20:29:29.756Z,2.20
2023-02-01T20:32:35.228Z,2.30
2023-02-01T20:35:37.859Z,2.10
2023-02-01T20:38:40.546Z,2.20
2023-02-01T20:41:43.622Z,2.60
2023-02-01T20:44:46.217Z,2.67
2023-02-01T20:47:52.672Z,2.47
2023-02-01T20:50:56.211Z,2.20
2023-02-01T20:53:58.844Z,2.60
2023-02-01T20:57:01.893Z,2.00
2023-02-01T21:00:08.059Z,2.67
2023-02-01T21:03:12.102Z,2.43
2023-02-01T21:06:14.738Z,2.77
2023-02-01T21:09:17.799Z,2.50
2023-02-01T21:12:20.809Z,2.20
2023-02-01T21:15:26.278Z,2.33
2023-02-01T21:18:32.096Z,1.93
2023-02-01T21:21:34.993Z,2.20
2023-02-01T21:24:37.662Z,2.60
2023-02-01T21:27:40.327Z,2.20
2023-02-01T21:30:42.964Z,2.80
2023-02-01T21:33:47.668Z,2.27
2023-02-01T21:36:50.290Z,2.07
2023-02-01T21:39:53.108Z,2.20
2023-02-01T21:42:55.773Z,2.47
2023-02-01T21:45:58.495Z,1.90
2023-02-01T21:49:04.627Z,2.10
2023-02-01T21:52:08.773Z,2.27
2023-02-01T21:55:11.673Z,2.00
2023-02-01T21:58:14.300Z,2.23
2023-02-01T22:01:17.066Z,2.13
2023-02-01T22:04:21.116Z,2.13
2023-02-01T22:07:23.837Z,2.20
2023-02-01T22:10:26.460Z,2.50
2023-02-01T22:13:29.293Z,2.23
2023-02-01T22:16:32.120Z,1.90
2023-02-01T22:19:36.162Z,2.57
2023-02-01T22:22:38.874Z,2.20
2023-02-01T22:25:41.505Z,2.07
2023-02-01T22:28:44.852Z,2.23
2023-02-01T22:31:47.960Z,2.37
2023-02-01T22:34:52.020Z,2.33
2023-02-01T22:37:54.627Z,2.23
2023-02-01T22:40:58.073Z,2.23
2023-02-01T22:44:02.168Z,1.93
2023-02-01T22:47:05.021Z,2.27
2023-02-01T22:50:10.567Z,2.13
2023-02-01T22:53:13.562Z,2.00
2023-02-01T22:56:17.214Z,2.20
2023-02-01T22:59:20.047Z,1.97
2023-02-01T23:02:22.691Z,2.00
2023-02-01T23:05:27.271Z,2.27
2023-02-01T23:08:30.124Z,2.23
2023-02-01T23:11:32.856Z,1.70
2023-02-01T23:14:55.532Z,2.00
2023-02-01T23:17:58.309Z,2.40
2023-02-01T23:21:06.200Z,2.43
2023-02-01T23:24:10.774Z,2.33
2023-02-01T23:27:13.407Z,2.00
2023-02-01T23:30:16.817Z,1.90
2023-02-01T23:33:23.234Z,2.50
2023-02-01T23:36:28.795Z,2.80
2023-02-01T23:39:33.104Z,2.03
2023-02-01T23:42:36.082Z,2.43
2023-02-01T23:45:38.760Z,2.20
2023-02-01T23:48:41.368Z,2.37
2023-02-01T23:51:47.474Z,2.23
2023-02-01T23:54:50.136Z,2.50
2023-02-01T23:57:52.750Z,2.83
